Kinston Regional Jetport At Stallings Field
KISO : now visible

Airfield :











YOU CAN JOIN US ON...

 
LOGIN :

Register | Disclaimer

   EN    FR    IT 

 









Legend :    VFR   Marginal VFR   IFR   Intensive IFR   Very Intensive IFR
Visi :
Ceiling :
>= 8 km
>= 3000ft
5 to 8 km
1000 to 3000 ft
1500m to 5 km
500 to 1000 ft
800 to 1500m
200 to 500 ft
< 800m
< 200 ft
Symbols :   Thunderstorms  Fog  Heavy snow  Heavy precipitations  Wind > 20 kt







- Airport Elevation : 93 ft


KISO - Kinston Regional Jetport At Stallings Field

CURRENT METAR :
  • 210500Z AUTO 00000KT 10SM CLR 13/13 A3030 RMK AO2 T01340129

EXPIRED METARs :
  • 210440Z AUTO 00000KT 10SM CLR 13/13 A3030 RMK AO2 T01320127
  • 210420Z AUTO 00000KT 10SM CLR 13/13 A3030 RMK AO2 T01340128
  • 210400Z AUTO 00000KT 10SM CLR 14/13 A3030 RMK AO2 T01360131
  • 210340Z AUTO 00000KT 10SM CLR 14/13 A3030 RMK AO2 T01360130
  • 210320Z AUTO 00000KT 10SM CLR 14/13 A3030 RMK AO2 T01370130
  • 210300Z AUTO 00000KT 10SM CLR 14/14 A3030 RMK AO2 T01410135
  • 210240Z AUTO 00000KT 10SM CLR 15/14 A3030 RMK AO2 T01450136
  • 210220Z AUTO 00000KT 10SM CLR 15/14 A3030 RMK AO2 T01460137

TAF KISO
Valid from the 21 at 00:00 until the 22 at 00:00 UTC


202320Z 2100/2124 VRB02KT P6SM FEW250
FM210900 00000KT 5SM BR SKC
FM211200 21005KT P6SM SKC AMD LTD TO CLD VIS AND WIND
No reported NOTAMs for that airfield.



MET'MAP, your aeronautical weather chart ! - Copyright ORBIFLY December 2007 - Disclaimer

ORBIFLY MET'MAP TEAM :

Programming & Development : Alexandra Zaïnal
Concept & Development : Baudouin d'Aumeries
Co-Development & Prog : Marc-Olivier Méhu
Technical & hardware support : Manuel Goepfert

Contact : metmap@orbifly.com




SOURCES & CREDITS :

   NOAA       Earth
Advisory